LYBE/BEG METAR and TAF weather

Enter ICAO airport designator
Station Type Date Time Source
LYBE METAR 2020/03/31 12:30 UTC NOAA

LYBE 311230Z VRB02KT CAVOK 06/M08 Q1022 NOSIG


Station Type Date Time Source
LYBE Decoded METAR 2020/03/31 12:30 UTC NOAA

Beograd / Surcin, Serbia and Montenegro (LYBE) 44-49N 020-17E 99M
Mar 31, 2020 - 08:30 AM EDT / 2020.03.31 1230 UTC
Wind: Variable at 2 MPH (2 KT):0
Visibility: greater than 7 mile(s):0
Temperature: 42 F (6 C)
Dew Point: 17 F (-8 C)
Relative Humidity: 35%
Pressure (altimeter): 30.18 in. Hg (1022 hPa)
ob: LYBE 311230Z VRB02KT CAVOK 06/M08 Q1022 NOSIG
cycle: 12

Station Type Date Time Source
LYBE TAF 2020/03/31 12:21 UTC NOAA

TAF LYBE 311100Z 3112/0112 35008KT 9999 BKN040 TX04/3113Z TNM01/0104Z
BECMG 0102/0104 08015KT
TEMPO 0104/0108 4000 SN BKN013 BKN027

Example: see airport list